Time;durP1;ratioP1;P1;durP2;ratioP2;P2;SDS_P1;SDS_P2;PMS_P1;PMS_P2;Temp;Humidity;BMP_temperature;BMP_pressure;BME280_temperature;BME280_humidity;BME280_pressure;Samples;Min_cycle;Max_cycle;Signal;HPM_P1;HPM_P2
2021/06/29 00:01:06;;;;;;;;;;;19.60;59.00;;;;;;5008761;28;19926;-91
2021/06/29 00:03:31;;;;;;;;;;;19.60;58.60;;;;;;5013446;28;19948;-90
2021/06/29 00:05:57;;;;;;;;;;;19.60;58.50;;;;;;5014933;28;20278;-89
2021/06/29 00:08:22;;;;;;;;;;;19.60;58.30;;;;;;5004451;28;20309;-91
2021/06/29 00:10:48;;;;;;;;;;;19.70;57.90;;;;;;5005544;28;19913;-91
2021/06/29 00:13:14;;;;;;;;;;;19.70;57.20;;;;;;4996355;28;20006;-90
2021/06/29 00:15:40;;;;;;;;;;;19.70;57.10;;;;;;4997605;28;19921;-91
2021/06/29 00:18:06;;;;;;;;;;;19.70;57.10;;;;;;5000093;28;20268;-91
2021/06/29 00:20:31;;;;;;;;;;;19.70;57.10;;;;;;5002236;28;19928;-92
2021/06/29 00:22:57;;;;;;;;;;;19.70;57.00;;;;;;5002164;28;19955;-91
2021/06/29 00:25:22;;;;;;;;;;;19.60;57.10;;;;;;4998683;28;21148;-91
2021/06/29 00:27:48;;;;;;;;;;;19.60;56.40;;;;;;5013733;28;19912;-90
2021/06/29 00:30:14;;;;;;;;;;;19.60;56.00;;;;;;4998021;28;20342;-91
2021/06/29 00:32:39;;;;;;;;;;;19.60;58.50;;;;;;5012042;28;20004;-90
2021/06/29 00:35:05;;;;;;;;;;;19.60;59.20;;;;;;5014032;28;19956;-91
2021/06/29 00:37:31;;;;;;;;;;;19.50;59.20;;;;;;5012892;28;19917;-89
2021/06/29 00:39:56;;;;;;;;;;;19.60;58.80;;;;;;5014121;28;19940;-91
2021/06/29 00:42:22;;;;;;;;;;;19.60;57.10;;;;;;5013471;28;20015;-91
2021/06/29 00:44:47;;;;;;;;;;;19.50;56.00;;;;;;5011146;28;19910;-91
2021/06/29 00:47:14;;;;;;;;;;;19.50;56.10;;;;;;5012394;28;19986;-90
2021/06/29 00:49:39;;;;;;;;;;;19.40;56.40;;;;;;5013985;28;19971;-91
2021/06/29 00:52:06;;;;;;;;;;;19.30;56.80;;;;;;5013752;28;20402;-90
2021/06/29 00:54:34;;;;;;;;;;;19.30;57.10;;;;;;5010697;28;20003;-91
2021/06/29 00:57:00;;;;;;;;;;;19.30;58.20;;;;;;5024938;28;19962;-91
2021/06/29 00:59:26;;;;;;;;;;;19.30;58.40;;;;;;5012551;28;19905;-90
2021/06/29 01:01:51;;;;;;;;;;;19.30;57.70;;;;;;5012915;28;19981;-90
2021/06/29 01:04:17;;;;;;;;;;;19.40;58.40;;;;;;5012441;28;19909;-91
2021/06/29 01:06:44;;;;;;;;;;;19.40;58.00;;;;;;5012589;28;19906;-91
2021/06/29 01:09:09;;;;;;;;;;;19.40;57.20;;;;;;5013767;28;20007;-91
2021/06/29 01:11:35;;;;;;;;;;;19.50;57.40;;;;;;5010852;28;19948;-89
2021/06/29 01:14:13;;;;;;;;;;;19.50;59.00;;;;;;5013403;28;19992;-90
2021/06/29 01:16:39;;;;;;;;;;;19.50;55.70;;;;;;5013574;28;19917;-90
2021/06/29 01:19:04;;;;;;;;;;;19.50;54.70;;;;;;5013570;28;20012;-91
2021/06/29 01:21:35;;;;;;;;;;;19.40;54.40;;;;;;5012613;28;19960;-90
2021/06/29 01:24:01;;;;;;;;;;;19.40;54.30;;;;;;5012562;28;20386;-90
2021/06/29 01:26:30;;;;;;;;;;;19.50;55.10;;;;;;5000535;28;19912;-91
2021/06/29 01:29:04;;;;;;;;;;;19.50;55.10;;;;;;5005218;28;20016;-91
2021/06/29 01:31:29;;;;;;;;;;;;;;;;;;5013529;28;19917;-91
2021/06/29 01:33:55;;;;;;;;;;;19.50;54.90;;;;;;5016523;28;19959;-89
2021/06/29 01:36:22;;;;;;;;;;;19.50;54.80;;;;;;5015840;28;19916;-89
2021/06/29 01:38:49;;;;;;;;;;;19.60;55.40;;;;;;5017302;28;19906;-90
2021/06/29 01:41:16;;;;;;;;;;;19.60;56.30;;;;;;5016989;28;20005;-90
2021/06/29 01:43:48;;;;;;;;;;;19.60;57.10;;;;;;5016626;28;19920;-91
2021/06/29 01:46:15;;;;;;;;;;;19.60;57.10;;;;;;5016256;28;20754;-91
2021/06/29 01:48:47;;;;;;;;;;;19.60;56.40;;;;;;5016567;28;19917;-90
2021/06/29 01:51:13;;;;;;;;;;;19.60;56.40;;;;;;5016943;28;19917;-92
2021/06/29 01:53:39;;;;;;;;;;;19.50;56.70;;;;;;5004777;28;19909;-91
2021/06/29 01:56:06;;;;;;;;;;;19.40;57.50;;;;;;5010901;28;20389;-91
2021/06/29 01:58:33;;;;;;;;;;;19.40;57.80;;;;;;5016492;28;19916;-90
2021/06/29 02:00:59;;;;;;;;;;;19.30;58.90;;;;;;5016418;28;19906;-90
2021/06/29 02:03:26;;;;;;;;;;;19.20;58.90;;;;;;5016560;28;19963;-91
2021/06/29 02:05:52;;;;;;;;;;;19.20;59.20;;;;;;5013809;28;20278;-91
2021/06/29 02:08:17;;;;;;;;;;;19.20;59.10;;;;;;5015101;28;19956;-90
2021/06/29 02:10:43;;;;;;;;;;;19.10;59.90;;;;;;5009066;28;19922;-91
2021/06/29 02:13:08;;;;;;;;;;;19.00;60.30;;;;;;5002189;28;19909;-90
2021/06/29 02:15:34;;;;;;;;;;;19.00;60.60;;;;;;5016056;28;20404;-91
2021/06/29 02:18:00;;;;;;;;;;;18.80;60.90;;;;;;5017053;28;19916;-90
2021/06/29 02:20:25;;;;;;;;;;;18.80;61.20;;;;;;5014151;28;20456;-91
2021/06/29 02:22:52;;;;;;;;;;;18.90;61.50;;;;;;5015173;28;19912;-92
2021/06/29 02:25:18;;;;;;;;;;;18.90;61.10;;;;;;5016370;28;20297;-90
2021/06/29 02:27:43;;;;;;;;;;;18.90;60.60;;;;;;5015764;28;19910;-91
2021/06/29 02:30:09;;;;;;;;;;;18.90;60.00;;;;;;4996394;28;20004;-91
2021/06/29 02:32:34;;;;;;;;;;;18.90;60.20;;;;;;4996142;28;19910;-91
2021/06/29 02:35:00;;;;;;;;;;;19.00;59.30;;;;;;5001287;28;19918;-90
2021/06/29 02:37:26;;;;;;;;;;;19.00;58.30;;;;;;5015839;28;19905;-90
2021/06/29 02:39:52;;;;;;;;;;;;;;;;;;5014904;28;20370;-91
2021/06/29 02:42:18;;;;;;;;;;;19.00;57.00;;;;;;5015844;28;19905;-90
2021/06/29 02:44:45;;;;;;;;;;;19.00;57.00;;;;;;5015897;28;20067;-90
2021/06/29 02:47:11;;;;;;;;;;;19.10;56.40;;;;;;5014876;28;19983;-91
2021/06/29 02:49:37;;;;;;;;;;;19.10;55.90;;;;;;5014891;28;20456;-90
2021/06/29 02:52:02;;;;;;;;;;;19.00;55.80;;;;;;5008723;28;20024;-91
2021/06/29 02:54:28;;;;;;;;;;;19.10;55.40;;;;;;5014484;28;19905;-92
2021/06/29 02:56:53;;;;;;;;;;;19.10;54.70;;;;;;5014700;28;19913;-91
2021/06/29 02:59:19;;;;;;;;;;;19.10;54.60;;;;;;5014355;28;20366;-91
2021/06/29 03:01:45;;;;;;;;;;;19.10;51.30;;;;;;5015430;28;19905;-91
2021/06/29 03:04:11;;;;;;;;;;;19.10;51.00;;;;;;5008954;28;19914;-91
2021/06/29 03:06:36;;;;;;;;;;;19.20;49.80;;;;;;4997276;28;20278;-91
2021/06/29 03:09:03;;;;;;;;;;;19.20;51.00;;;;;;5014366;28;20388;-91
2021/06/29 03:11:29;;;;;;;;;;;19.20;50.60;;;;;;5014145;28;19910;-90
2021/06/29 03:13:55;;;;;;;;;;;19.20;49.20;;;;;;5014110;28;19964;-91
2021/06/29 03:16:20;;;;;;;;;;;19.10;47.50;;;;;;5014383;28;19921;-91
2021/06/29 03:18:46;;;;;;;;;;;19.00;48.50;;;;;;5015176;28;19906;-91
2021/06/29 03:21:11;;;;;;;;;;;19.10;49.00;;;;;;5015143;28;19945;-90
2021/06/29 03:23:37;;;;;;;;;;;19.10;49.60;;;;;;5013213;28;19933;-90
2021/06/29 03:26:03;;;;;;;;;;;19.10;51.50;;;;;;5014077;28;19913;-90
2021/06/29 03:28:29;;;;;;;;;;;19.10;51.10;;;;;;5012824;28;19944;-90
2021/06/29 03:30:54;;;;;;;;;;;;;;;;;;5015296;28;20012;-91
2021/06/29 03:33:20;;;;;;;;;;;19.00;46.80;;;;;;5013758;28;19906;-91
2021/06/29 03:35:46;;;;;;;;;;;18.90;46.40;;;;;;5013887;28;19992;-90
2021/06/29 03:38:11;;;;;;;;;;;18.90;46.90;;;;;;5013451;28;19909;-91
2021/06/29 03:40:37;;;;;;;;;;;18.90;47.60;;;;;;5016522;28;19912;-91
2021/06/29 03:43:03;;;;;;;;;;;18.90;46.80;;;;;;5013385;28;19909;-91
2021/06/29 03:45:29;;;;;;;;;;;18.80;46.40;;;;;;5014165;28;19909;-90
2021/06/29 03:47:54;;;;;;;;;;;18.80;56.40;;;;;;5013643;28;19963;-91
2021/06/29 03:50:20;;;;;;;;;;;18.80;55.90;;;;;;5001104;28;19928;-91
2021/06/29 03:52:45;;;;;;;;;;;18.80;55.50;;;;;;5006928;28;19913;-91
2021/06/29 03:55:11;;;;;;;;;;;18.70;55.30;;;;;;5012210;28;20432;-91
2021/06/29 03:57:36;;;;;;;;;;;18.70;56.40;;;;;;5010920;28;19996;-91
2021/06/29 04:00:06;;;;;;;;;;;18.70;55.60;;;;;;4993884;28;19906;-92
2021/06/29 04:02:32;;;;;;;;;;;18.80;54.50;;;;;;5012549;28;19909;-92
2021/06/29 04:04:57;;;;;;;;;;;18.90;53.60;;;;;;4999755;28;19952;-92
2021/06/29 04:07:24;;;;;;;;;;;18.90;53.60;;;;;;5002292;28;19905;-92
2021/06/29 04:09:50;;;;;;;;;;;19.00;53.20;;;;;;5015743;28;19920;-93
2021/06/29 04:12:16;;;;;;;;;;;18.80;52.50;;;;;;5013079;28;19906;-91
2021/06/29 04:14:42;;;;;;;;;;;18.90;52.80;;;;;;5014138;28;19914;-93
2021/06/29 04:17:07;;;;;;;;;;;18.90;48.40;;;;;;4998460;28;20481;-92
2021/06/29 04:19:33;;;;;;;;;;;;;;;;;;5000110;28;20378;-92
2021/06/29 04:21:59;;;;;;;;;;;;;;;;;;4999774;28;19909;-91
2021/06/29 04:24:24;;;;;;;;;;;18.70;69.90;;;;;;5012822;28;20337;-92
2021/06/29 04:26:50;;;;;;;;;;;18.50;49.50;;;;;;5012856;28;19909;-91
2021/06/29 04:29:15;;;;;;;;;;;18.50;49.80;;;;;;5013578;28;19960;-92
2021/06/29 04:31:41;;;;;;;;;;;18.40;50.90;;;;;;5012476;28;19916;-91
2021/06/29 04:34:07;;;;;;;;;;;18.30;50.50;;;;;;5009212;28;19985;-92
2021/06/29 04:36:32;;;;;;;;;;;18.30;51.80;;;;;;4996456;28;19960;-93
2021/06/29 04:38:58;;;;;;;;;;;18.30;52.10;;;;;;5013563;28;19996;-93
2021/06/29 04:41:23;;;;;;;;;;;18.40;51.70;;;;;;5013523;28;19913;-92
2021/06/29 04:43:49;;;;;;;;;;;18.40;51.80;;;;;;5008623;28;19949;-92
2021/06/29 04:46:14;;;;;;;;;;;18.50;51.00;;;;;;5001090;28;19917;-92
2021/06/29 04:48:41;;;;;;;;;;;18.40;53.60;;;;;;4997107;28;19909;-92
2021/06/29 04:51:07;;;;;;;;;;;18.40;53.30;;;;;;4999596;28;19914;-92
2021/06/29 04:53:32;;;;;;;;;;;18.40;51.60;;;;;;5000691;28;20377;-93
2021/06/29 04:55:58;;;;;;;;;;;18.40;52.20;;;;;;5007155;28;19909;-93
2021/06/29 04:58:23;;;;;;;;;;;18.40;51.90;;;;;;5011840;28;20271;-92
2021/06/29 05:00:50;;;;;;;;;;;18.20;51.70;;;;;;5013490;28;20413;-92
2021/06/29 05:03:15;;;;;;;;;;;18.20;50.70;;;;;;5009923;28;19991;-91
2021/06/29 05:05:41;;;;;;;;;;;;;;;;;;5011919;28;20346;-91
2021/06/29 05:08:07;;;;;;;;;;;18.20;48.80;;;;;;5013363;28;19909;-92
2021/06/29 05:10:33;;;;;;;;;;;18.30;48.40;;;;;;5013490;28;19920;-93
2021/06/29 05:12:59;;;;;;;;;;;18.30;48.60;;;;;;5011865;28;19909;-91
2021/06/29 05:15:24;;;;;;;;;;;18.40;48.20;;;;;;5012150;28;19922;-92
2021/06/29 05:17:50;;;;;;;;;;;18.50;48.40;;;;;;5012438;28;19920;-91
2021/06/29 05:20:16;;;;;;;;;;;18.40;47.90;;;;;;5013450;28;19905;-92
2021/06/29 05:22:41;;;;;;;;;;;18.40;48.30;;;;;;5045151;28;19952;-92
2021/06/29 05:25:08;;;;;;;;;;;18.50;43.60;;;;;;5012220;28;19925;-93
2021/06/29 05:27:36;;;;;;;;;;;18.50;43.50;;;;;;5012238;28;19913;-91
2021/06/29 05:30:01;;;;;;;;;;;18.60;44.30;;;;;;5013496;28;19921;-92
2021/06/29 05:32:27;;;;;;;;;;;18.70;43.70;;;;;;4994659;28;19906;-87
2021/06/29 05:37:00;;;;;;;0.50;0.50;;;;;;;;;;5184790;27;20397;-77
2021/06/29 05:39:26;;;;;;;0.68;0.47;;;;;;;;;;5166405;27;20705;-77
2021/06/29 05:41:53;;;;;;;1.48;0.80;;;;;;;;;;5167413;27;20026;-77
2021/06/29 05:44:19;;;;;;;2.30;0.50;;;;;;;;;;5164982;27;20061;-77
2021/06/29 05:46:45;;;;;;;0.80;0.55;;;;;;;;;;5166933;27;20035;-77
2021/06/29 05:49:13;;;;;;;0.50;0.50;;;;;;;;;;5159454;27;22213;-77
2021/06/29 05:51:40;;;;;;;0.60;0.40;;;;;;;;;;5087043;27;20040;-76
2021/06/29 05:54:06;;;;;;;;;;;;;;;;;;5105434;28;20024;-77
2021/06/29 05:56:33;;;;;;;0.75;0.45;;;;;;;;;;5101956;28;20011;-77
2021/06/29 05:58:59;;;;;;;3.10;0.60;;;;;;;;;;5102952;28;20103;-77
2021/06/29 06:01:25;;;;;;;0.50;0.50;;;;;;;;;;5105154;28;20035;-78
2021/06/29 06:03:51;;;;;;;1.33;0.85;;;;;;;;;;5105012;28;20019;-77
2021/06/29 06:06:17;;;;;;;0.93;0.80;;;;;;;;;;5091489;28;20039;-77
2021/06/29 06:08:43;;;;;;;2.13;0.90;;;;;;;;;;5104689;28;20061;-77
2021/06/29 06:11:09;;;;;;;2.00;0.70;;;;;;;;;;5104430;28;20039;-77
2021/06/29 06:13:35;;;;;;;4.60;0.90;;;;;;;;;;5101381;28;20032;-77
2021/06/29 06:16:02;;;;;;;1.15;0.70;;;;;;;;;;5094773;28;20133;-77
2021/06/29 06:18:28;;;;;;;3.03;0.93;;;;;;;;;;5096873;28;20413;-77
2021/06/29 06:20:54;;;;;;;2.20;0.93;;;;;;;;;;5101246;28;20043;-76
2021/06/29 06:23:20;;;;;;;0.45;0.45;;;;;;;;;;5102685;28;20020;-78
2021/06/29 06:25:46;;;;;;;0.50;0.50;;;;;;;;;;5101040;28;20043;-77
2021/06/29 06:28:12;;;;;;;1.45;0.70;;;;;;;;;;5098455;28;20012;-77
2021/06/29 06:30:40;;;;;;;0.35;0.35;;;;;;;;;;5081966;28;20040;-77
2021/06/29 06:33:06;;;;;;;0.30;0.30;;;;;;;;;;5102414;28;20590;-77
2021/06/29 06:35:32;;;;;;;2.17;0.50;;;;;;;;;;5100150;28;20063;-76
2021/06/29 06:37:58;;;;;;;2.85;0.63;;;;;;;;;;5097438;28;20036;-76
2021/06/29 06:40:24;;;;;;;1.20;0.68;;;;;;;;;;5097911;28;20110;-77
2021/06/29 06:42:50;;;;;;;1.20;0.60;;;;;;;;;;5100923;28;20020;-77
2021/06/29 06:45:22;;;;;;;0.60;0.60;;;;;;;;;;5102830;28;20054;-77
2021/06/29 06:47:48;;;;;;;1.40;0.73;;;;;;;;;;5089316;28;20028;-76
2021/06/29 06:50:14;;;;;;;1.55;0.90;;;;;;;;;;5076194;28;20036;-77
2021/06/29 06:52:40;;;;;;;0.60;0.60;;;;;;;;;;5084803;28;20032;-76
2021/06/29 06:55:08;;;;;;;1.70;0.90;;;;;;;;;;5085029;28;20042;-76
2021/06/29 06:57:34;;;;;;;;;;;;;;;;;;5069463;28;20059;-76
2021/06/29 07:00:00;;;;;;;3.00;0.60;;;;;;;;;;5084484;28;20346;-77
2021/06/29 07:02:26;;;;;;;1.17;0.60;;;;;;;;;;5082547;28;20468;-76
2021/06/29 07:04:52;;;;;;;0.50;0.50;;;;;;;;;;5085127;28;20035;-77
2021/06/29 07:07:18;;;;;;;1.40;1.00;;;;;;;;;;5085776;28;20120;-77
2021/06/29 07:09:44;;;;;;;1.75;0.93;;;;;;;;;;5074405;28;20038;-77
2021/06/29 07:12:11;;;;;;;0.68;0.50;;;;;;;;;;5082990;28;20036;-76
2021/06/29 07:14:37;;;;;;;1.23;0.50;;;;;;;;;;5084806;28;20021;-76
2021/06/29 07:17:03;;;;;;;0.57;0.43;;;;;;;;;;5085678;28;20028;-76
2021/06/29 07:19:29;;;;;;;0.68;0.68;;;;;;;;;;5081269;28;20058;-76
2021/06/29 07:21:55;;;;;;;0.95;0.60;;;;;;;;;;5084867;28;20488;-76
2021/06/29 07:24:21;;;;;;;0.70;0.70;;;;;;;;;;5085908;28;20012;-76
2021/06/29 07:26:47;;;;;;;0.63;0.50;;;;;;;;;;5084024;28;20039;-76
2021/06/29 07:29:13;;;;;;;0.63;0.40;;;;;;;;;;5078411;28;20105;-76
2021/06/29 07:31:40;;;;;;;0.55;0.55;;;;;;;;;;5083728;28;20025;-76
2021/06/29 07:34:06;;;;;;;0.95;0.50;;;;;;;;;;5085924;28;20103;-77
2021/06/29 07:36:32;;;;;;;0.90;0.50;;;;;;;;;;5067333;28;20583;-77
2021/06/29 07:38:58;;;;;;;0.35;0.20;;;;;;;;;;5082724;28;20088;-78
2021/06/29 07:41:24;;;;;;;0.70;0.30;;;;;;;;;;5085182;28;20059;-77
2021/06/29 07:43:54;;;;;;;1.52;0.47;;;27.40;29.80;;;;;;5080641;28;20031;-77
2021/06/29 07:46:20;;;;;;;0.30;0.30;;;;;;;;;;5085328;28;20072;-77
2021/06/29 07:48:46;;;;;;;0.25;0.13;;;;;;;;;;5080909;28;20112;-77
2021/06/29 07:51:12;;;;;;;0.13;0.13;;;;;;;;;;5085729;28;20107;-77
2021/06/29 07:53:38;;;;;;;0.17;0.10;;;29.70;38.10;;;;;;5084531;28;20020;-76
2021/06/29 07:56:04;;;;;;;0.52;0.45;;;29.70;37.70;;;;;;5082400;28;20031;-76
2021/06/29 07:58:30;;;;;;;2.45;0.17;;;;;;;;;;5079748;28;20088;-77
2021/06/29 08:00:56;;;;;;;0.30;0.10;;;;;;;;;;5082503;28;20032;-77
2021/06/29 08:03:23;;;;;;;0.10;0.00;;;;;;;;;;5083788;28;20020;-77
2021/06/29 08:05:49;;;;;;;0.27;0.00;;;;;;;;;;5086450;28;20135;-77
2021/06/29 08:08:15;;;;;;;0.20;0.10;;;;;;;;;;5060888;28;20288;-77
2021/06/29 08:10:40;;;;;;;0.10;0.00;;;31.30;30.70;;;;;;5083603;28;20077;-76
2021/06/29 08:13:07;;;;;;;0.53;0.00;;;;;;;;;;5064785;28;20028;-76
2021/06/29 08:15:34;;;;;;;0.20;0.10;;;31.60;21.40;;;;;;5082483;28;20032;-77
2021/06/29 08:18:00;;;;;;;;;;;31.40;20.10;;;;;;5079062;28;20060;-77
2021/06/29 08:20:26;;;;;;;0.00;0.00;;;;;;;;;;5060696;28;20318;-77
2021/06/29 08:22:54;;;;;;;0.00;0.00;;;30.90;21.00;;;;;;5083792;28;20024;-77
2021/06/29 08:25:21;;;;;;;0.45;0.22;;;;;;;;;;5062655;28;20040;-76
2021/06/29 08:27:47;;;;;;;0.10;0.03;;;;;;;;;;5083026;28;20501;-77
2021/06/29 08:30:14;;;;;;;0.15;0.00;;;29.00;23.10;;;;;;5081108;28;20123;-77
2021/06/29 08:32:40;;;;;;;1.67;1.02;;;;;;;;;;5082261;28;20544;-77
2021/06/29 08:35:07;;;;;;;0.10;0.10;;;29.70;36.60;;;;;;5076901;28;20124;-76
2021/06/29 08:37:33;;;;;;;0.00;0.00;;;;;;;;;;5062341;28;20082;-76
2021/06/29 08:39:59;;;;;;;0.22;0.05;;;;;;;;;;5060911;28;20033;-77
2021/06/29 08:42:25;;;;;;;0.00;0.00;;;;;;;;;;5062606;28;20063;-78
2021/06/29 08:44:51;;;;;;;0.00;0.00;;;;;;;;;;5066555;28;20120;-85
2021/06/29 08:47:17;;;;;;;0.00;0.00;;;;;;;;;;5060693;28;20111;-80
2021/06/29 08:49:43;;;;;;;0.90;0.08;;;;;;;;;;5061819;28;20029;-81
2021/06/29 08:52:10;;;;;;;0.60;0.00;;;31.00;18.10;;;;;;5065501;28;20035;-83
2021/06/29 08:54:36;;;;;;;0.00;0.00;;;;;;;;;;5066267;28;20051;-81
2021/06/29 08:57:03;;;;;;;0.08;0.00;;;;;;;;;;5067457;28;20082;-81
2021/06/29 08:59:29;;;;;;;0.00;0.00;;;;;;;;;;5061375;28;20628;-81
2021/06/29 09:01:55;;;;;;;2.58;0.10;;;;;;;;;;5064759;28;20136;-81
2021/06/29 09:04:47;;;;;;;0.30;0.03;;;31.60;17.50;;;;;;5060988;28;20056;-82
2021/06/29 09:07:19;;;;;;;0.68;0.17;;;32.50;19.80;;;;;;5057118;28;20044;-83
2021/06/29 09:09:58;;;;;;;0.00;0.00;;;31.80;21.90;;;;;;5062353;28;20044;-85
2021/06/29 09:12:48;;;;;;;0.25;0.00;;;32.00;18.20;;;;;;5057629;28;20922;-84
2021/06/29 09:15:32;;;;;;;0.32;0.00;;;32.30;17.20;;;;;;5053255;28;20140;-86
2021/06/29 09:18:15;;;;;;;0.30;0.10;;;32.30;16.80;;;;;;5062387;28;20033;-86
2021/06/29 09:20:42;;;;;;;0.75;0.10;;;32.40;16.60;;;;;;5063631;28;20592;-83
2021/06/29 09:23:12;;;;;;;;;;;32.40;16.60;;;;;;5063116;28;20028;-82
2021/06/29 09:25:40;;;;;;;0.13;0.00;;;32.00;16.80;;;;;;5066018;28;20429;-84
2021/06/29 09:28:06;;;;;;;0.00;0.00;;;;;;;;;;5058229;28;20103;-74
2021/06/29 09:30:41;;;;;;;0.00;0.00;;;31.10;17.00;;;;;;5061089;28;20044;-82
2021/06/29 09:33:35;;;;;;;0.13;0.00;;;30.10;20.30;;;;;;5062988;28;20027;-86
2021/06/29 09:36:05;;;;;;;0.05;0.05;;;29.30;19.10;;;;;;5072818;28;20140;-85
2021/06/29 09:38:36;;;;;;;0.40;0.20;;;28.80;19.80;;;;;;5080635;28;20036;-85
2021/06/29 09:41:06;;;;;;;0.10;0.08;;;28.50;20.40;;;;;;5082606;28;20507;-85
2021/06/29 09:43:36;;;;;;;0.20;0.20;;;28.10;20.90;;;;;;5080424;28;20056;-83
2021/06/29 09:46:03;;;;;;;0.55;0.10;;;27.90;20.90;;;;;;5083092;28;20071;-84
2021/06/29 09:48:36;;;;;;;0.10;0.10;;;27.70;21.10;;;;;;5062975;28;20108;-83
2021/06/29 09:51:10;;;;;;;0.08;0.08;;;27.50;21.70;;;;;;5083069;28;20023;-82
2021/06/29 09:53:43;;;;;;;2.20;0.10;;;27.50;21.90;;;;;;5083241;28;20039;-82
2021/06/29 09:56:15;;;;;;;2.13;0.20;;;27.20;22.50;;;;;;5081940;28;20028;-82
2021/06/29 09:58:43;;;;;;;0.57;0.10;;;27.60;22.00;;;;;;5078575;28;20048;-82
2021/06/29 10:01:11;;;;;;;0.00;0.00;;;28.30;21.30;;;;;;5081393;28;20043;-83
2021/06/29 10:03:39;;;;;;;0.73;0.10;;;29.00;20.70;;;;;;5065819;28;21397;-83
2021/06/29 10:06:16;;;;;;;0.08;0.08;;;29.80;26.00;;;;;;5083768;28;20032;-83
2021/06/29 10:08:44;;;;;;;0.10;0.00;;;29.80;19.20;;;;;;5060928;28;20073;-84
2021/06/29 10:11:16;;;;;;;0.15;0.15;;;;;;;;;;5078341;28;20088;-84
2021/06/29 10:14:04;;;;;;;0.00;0.00;;;30.80;23.00;;;;;;5080157;28;20107;-83
2021/06/29 10:16:37;;;;;;;0.20;0.20;;;31.20;18.20;;;;;;5081737;28;20028;-84
2021/06/29 10:19:15;;;;;;;0.00;0.00;;;;;;;;;;5079270;28;20067;-83
2021/06/29 10:21:47;;;;;;;0.00;0.00;;;30.80;17.20;;;;;;5082238;28;20119;-83
2021/06/29 10:24:15;;;;;;;0.00;0.00;;;30.50;17.20;;;;;;5070251;28;20728;-83
2021/06/29 10:26:43;;;;;;;0.00;0.00;;;30.00;18.60;;;;;;5072743;28;20040;-83
2021/06/29 10:29:11;;;;;;;0.00;0.00;;;29.60;18.40;;;;;;5082396;28;20024;-84
2021/06/29 10:31:39;;;;;;;0.98;0.00;;;29.00;18.20;;;;;;5068255;28;20059;-83
2021/06/29 10:34:07;;;;;;;0.00;0.00;;;28.30;19.40;;;;;;5086554;28;20078;-83
2021/06/29 10:36:35;;;;;;;0.08;0.08;;;27.60;20.90;;;;;;5069296;28;20052;-83
2021/06/29 10:39:01;;;;;;;0.15;0.10;;;;;;;;;;5085017;28;20020;-83
2021/06/29 10:41:34;;;;;;;0.60;0.10;;;26.80;22.60;;;;;;5086141;28;20032;-82
2021/06/29 10:44:03;;;;;;;0.10;0.10;;;;;;;;;;5086818;28;20596;-84
2021/06/29 10:46:29;;;;;;;0.25;0.03;;;;;;;;;;5085012;28;20040;-83
2021/06/29 10:48:55;;;;;;;0.10;0.10;;;28.30;22.10;;;;;;5082480;28;20031;-83
2021/06/29 10:51:37;;;;;;;0.00;0.00;;;29.00;20.70;;;;;;5087455;28;20047;-83
2021/06/29 10:54:04;;;;;;;0.50;0.10;;;;;;;;;;5087015;28;20024;-83
2021/06/29 10:56:55;;;;;;;0.20;0.10;;;28.40;20.70;;;;;;5083057;28;20621;-83
2021/06/29 10:59:32;;;;;;;0.57;0.10;;;28.50;22.00;;;;;;5052752;28;20032;-83
2021/06/29 11:01:58;;;;;;;0.00;0.00;;;;;;;;;;5084668;28;20142;-83
2021/06/29 11:04:58;;;;;;;0.22;0.00;;;29.30;32.40;;;;;;5067702;28;20122;-84
2021/06/29 11:07:27;;;;;;;0.00;0.00;;;29.20;31.90;;;;;;5084476;28;20032;-83
2021/06/29 11:10:08;;;;;;;0.00;0.00;;;29.70;18.00;;;;;;5081412;28;20035;-84
2021/06/29 11:12:56;;;;;;;5.32;0.77;;;29.50;19.10;;;;;;5086092;28;20020;-83
2021/06/29 11:15:52;;;;;;;0.20;0.10;;;29.00;19.20;;;;;;5085153;28;20016;-83
2021/06/29 11:18:41;;;;;;;0.00;0.00;;;28.20;19.80;;;;;;5084187;28;20123;-83
2021/06/29 11:21:16;;;;;;;0.15;0.15;;;27.80;21.20;;;;;;5085160;28;20031;-84
2021/06/29 11:23:43;;;;;;;0.65;0.20;;;;;;;;;;5086704;28;20028;-83
2021/06/29 11:26:11;;;;;;;0.30;0.20;;;27.50;36.60;;;;;;5085263;28;20036;-83
2021/06/29 11:28:39;;;;;;;0.22;0.17;;;27.10;22.70;;;;;;5082028;28;20032;-84
2021/06/29 11:31:11;;;;;;;0.95;0.30;;;26.70;33.00;;;;;;5083256;28;20028;-81
2021/06/29 11:33:37;;;;;;;0.10;0.10;;;;;;;;;;5085846;28;20024;-82
2021/06/29 11:36:06;;;;;;;0.47;0.10;;;24.60;48.00;;;;;;5055818;28;20518;-83
2021/06/29 11:38:32;;;;;;;0.13;0.13;;;;;;;;;;5041228;28;63757;-84
2021/06/29 11:41:33;;;;;;;1.75;0.10;;;26.50;40.80;;;;;;5052507;28;20570;-83
2021/06/29 11:44:07;;;;;;;0.43;0.15;;;26.90;38.90;;;;;;5064719;28;20086;-84
2021/06/29 11:46:49;;;;;;;0.75;0.20;;;;;;;;;;5066144;28;20111;-84
2021/06/29 11:49:33;;;;;;;0.10;0.10;;;27.20;37.50;;;;;;5062336;28;20081;-82
2021/06/29 11:51:59;;;;;;;0.17;0.10;;;;;;;;;;5062390;28;20031;-82
2021/06/29 11:54:32;;;;;;;0.10;0.10;;;26.80;37.70;;;;;;5063321;28;20028;-82
2021/06/29 11:57:02;;;;;;;1.48;0.50;;;;;;;;;;5065926;28;20055;-81
2021/06/29 11:59:31;;;;;;;0.17;0.10;;;26.80;37.70;;;;;;5062089;28;20142;-84
2021/06/29 12:02:00;;;;;;;0.10;0.10;;;;;;;;;;5064695;28;20600;-84
2021/06/29 12:04:26;;;;;;;0.10;0.10;;;;;;;;;;5065907;28;20017;-82
2021/06/29 12:07:05;;;;;;;1.05;0.17;;;26.90;41.10;;;;;;5048361;28;20147;-81
2021/06/29 12:09:37;;;;;;;0.22;0.20;;;26.70;38.10;;;;;;5058715;28;20036;-83
2021/06/29 12:12:16;;;;;;;0.10;0.10;;;;;;;;;;5066426;28;20070;-83
2021/06/29 12:14:43;;;;;;;0.35;0.20;;;;;;;;;;5063952;28;20406;-84
2021/06/29 12:17:09;;;;;;;6.95;0.28;;;;;;;;;;5065488;28;20033;-83
2021/06/29 12:19:35;;;;;;;0.85;0.10;;;;;;;;;;5062317;28;20032;-84
2021/06/29 12:22:01;;;;;;;0.30;0.20;;;;;;;;;;5062232;28;20020;-82
2021/06/29 12:24:27;;;;;;;0.88;0.20;;;;;;;;;;5065762;28;20027;-83
2021/06/29 12:26:53;;;;;;;0.32;0.10;;;;;;;;;;5067037;28;20067;-82
2021/06/29 12:29:36;;;;;;;0.10;0.10;;;25.70;39.00;;;;;;5061178;28;20028;-83
2021/06/29 12:32:23;;;;;;;0.43;0.43;;;25.50;40.90;;;;;;5056922;28;20388;-83
2021/06/29 12:34:49;;;;;;;2.60;0.60;;;;;;;;;;5066261;28;20078;-82
2021/06/29 12:37:15;;;;;;;4.32;0.80;;;;;;;;;;5070922;28;20031;-83
2021/06/29 12:39:41;;;;;;;1.33;0.50;;;;;;;;;;5084338;28;20032;-83
2021/06/29 12:42:16;;;;;;;0.45;0.40;;;;;;;;;;5084612;28;20043;-83
2021/06/29 12:44:43;;;;;;;0.20;0.20;;;;;;;;;;5084020;28;20034;-82
2021/06/29 12:47:12;;;;;;;0.70;0.35;;;20.50;76.70;;;;;;5085110;28;20028;-83
2021/06/29 12:49:38;;;;;;;0.63;0.35;;;;;;;;;;5083422;28;20024;-84
2021/06/29 12:52:09;;;;;;;1.05;0.28;;;;;;;;;;5064208;28;20838;-83
2021/06/29 12:54:35;;;;;;;0.28;0.28;;;;;;;;;;5067464;28;20503;-83
2021/06/29 12:57:04;;;;;;;0.60;0.40;;;21.00;70.50;;;;;;5086439;28;20062;-83
2021/06/29 12:59:32;;;;;;;0.20;0.20;;;;;;;;;;5081191;28;20036;-85
2021/06/29 13:02:02;;;;;;;;;;;21.30;65.30;;;;;;5084938;28;20435;-84
2021/06/29 13:04:34;;;;;;;0.30;0.30;;;;;;;;;;5061833;28;71159;-84
2021/06/29 13:07:02;;;;;;;0.15;0.15;;;;;;;;;;5066750;28;20082;-85
2021/06/29 13:09:32;;;;;;;0.38;0.20;;;;;;;;;;5064374;28;20028;-87
2021/06/29 13:12:01;;;;;;;1.23;0.30;;;22.30;72.30;;;;;;5068922;28;20025;-87
2021/06/29 13:14:28;;;;;;;0.22;0.22;;;22.70;66.00;;;;;;5064889;28;20028;-86
2021/06/29 13:17:03;;;;;;;9.98;0.68;;;22.90;66.40;;;;;;5064186;28;20029;-84
2021/06/29 13:19:30;;;;;;;0.40;0.30;;;;;;;;;;5068590;28;20032;-83
2021/06/29 13:21:58;;;;;;;0.20;0.20;;;23.00;62.50;;;;;;5085372;28;20020;-83
2021/06/29 13:24:25;;;;;;;0.20;0.20;;;23.20;60.30;;;;;;5084686;28;20036;-85
2021/06/29 13:27:03;;;;;;;0.10;0.10;;;23.40;57.90;;;;;;5087082;28;20039;-84
2021/06/29 13:29:31;;;;;;;0.45;0.30;;;;;;;;;;5062020;28;20024;-84
2021/06/29 13:31:58;;;;;;;0.30;0.15;;;;;;;;;;5085527;28;20077;-84
2021/06/29 13:34:27;;;;;;;0.10;0.10;;;23.60;58.10;;;;;;5084805;28;20513;-84
2021/06/29 13:36:53;;;;;;;5.63;0.20;;;;;;;;;;5066143;28;20052;-85
2021/06/29 13:39:26;;;;;;;0.65;0.17;;;23.70;65.00;;;;;;5085284;28;20052;-81
2021/06/29 13:41:52;;;;;;;0.80;0.10;;;;;;;;;;5085855;28;20410;-83
2021/06/29 13:44:18;;;;;;;0.10;0.10;;;;;;;;;;5083958;28;20556;-83
2021/06/29 13:46:45;;;;;;;0.30;0.30;;;;;;;;;;5086020;28;20110;-84
2021/06/29 13:49:23;;;;;;;1.50;0.17;;;;;;;;;;5083111;28;20517;-84
2021/06/29 13:52:02;;;;;;;0.10;0.10;;;23.40;54.90;;;;;;5085385;28;20032;-85
2021/06/29 13:54:28;;;;;;;0.10;0.10;;;;;;;;;;5083402;28;20028;-87
2021/06/29 13:56:54;;;;;;;0.32;0.32;;;;;;;;;;5086768;28;20457;-85
2021/06/29 13:59:34;;;;;;;0.10;0.10;;;;;;;;;;5087099;28;20027;-83
2021/06/29 14:02:00;;;;;;;0.20;0.20;;;;;;;;;;5069741;28;20035;-87
2021/06/29 14:04:26;;;;;;;0.10;0.10;;;;;;;;;;5088741;28;20071;-82
2021/06/29 14:07:08;;;;;;;0.10;0.10;;;;;;;;;;5089604;28;20043;-85
2021/06/29 14:09:35;;;;;;;0.10;0.10;;;24.20;50.30;;;;;;5087318;28;20101;-83
2021/06/29 14:12:03;;;;;;;0.75;0.20;;;;;;;;;;5089587;28;20028;-82
2021/06/29 14:14:30;;;;;;;2.55;0.20;;;;;;;;;;5089381;28;20042;-83